createdAt,value
2023-04-12T00:00:40.227Z,100.00
2023-04-12T00:03:10.791Z,99.57
2023-04-12T00:05:38.956Z,99.39
2023-04-12T00:08:10.888Z,99.28
2023-04-12T00:10:39.212Z,99.43
2023-04-12T00:13:08.061Z,99.51
2023-04-12T00:15:38.188Z,98.70
2023-04-12T00:18:06.448Z,99.32
2023-04-12T00:20:34.506Z,99.43
2023-04-12T00:23:03.900Z,99.84
2023-04-12T00:25:32.109Z,99.63
2023-04-12T00:28:00.165Z,99.19
2023-04-12T00:30:28.320Z,99.08
2023-04-12T00:32:57.879Z,98.65
2023-04-12T00:35:28.037Z,98.47
2023-04-12T00:37:56.577Z,97.82
2023-04-12T00:40:25.050Z,97.86
2023-04-12T00:42:53.191Z,97.77
2023-04-12T00:45:22.158Z,97.97
2023-04-12T00:47:50.699Z,98.68
2023-04-12T00:50:21.309Z,98.84
2023-04-12T00:52:49.541Z,98.68
2023-04-12T00:55:18.435Z,98.33
2023-04-12T00:57:46.873Z,98.75
2023-04-12T01:00:17.211Z,98.72
2023-04-12T01:02:48.553Z,98.94
2023-04-12T01:05:22.655Z,99.02
2023-04-12T01:08:06.775Z,98.91
2023-04-12T01:10:45.029Z,99.20
2023-04-12T01:13:21.776Z,99.21
2023-04-12T01:15:59.946Z,98.95
2023-04-12T01:18:31.935Z,99.09
2023-04-12T01:21:08.012Z,99.11
2023-04-12T01:23:52.837Z,99.05
2023-04-12T01:26:34.724Z,99.19
2023-04-12T01:29:11.041Z,99.28
2023-04-12T01:31:42.324Z,99.41
2023-04-12T01:34:13.014Z,99.79
2023-04-12T01:36:43.970Z,99.70
2023-04-12T01:39:12.443Z,99.98
2023-04-12T01:41:45.480Z,100.00
2023-04-12T01:44:18.868Z,100.00
2023-04-12T01:46:49.794Z,100.00
2023-04-12T01:49:19.312Z,100.00
2023-04-12T01:51:53.938Z,100.00
2023-04-12T01:54:27.111Z,100.00
2023-04-12T01:56:59.299Z,100.00
2023-04-12T01:59:33.256Z,100.00
2023-04-12T02:02:02.375Z,100.00
2023-04-12T02:04:31.422Z,100.00
2023-04-12T02:06:59.960Z,100.00
2023-04-12T02:09:28.161Z,100.00
2023-04-12T02:11:56.489Z,100.00
2023-04-12T02:14:25.296Z,100.00
2023-04-12T02:16:55.957Z,100.00
2023-04-12T02:19:24.698Z,100.00
2023-04-12T02:21:53.951Z,100.00
2023-04-12T02:24:23.702Z,100.00
2023-04-12T02:26:55.384Z,100.00
2023-04-12T02:29:23.956Z,100.00
2023-04-12T02:31:52.686Z,100.00
2023-04-12T02:34:24.290Z,100.00
2023-04-12T02:37:00.315Z,100.00
2023-04-12T02:39:29.316Z,100.00
2023-04-12T02:41:58.797Z,100.00
2023-04-12T02:44:27.431Z,100.00
2023-04-12T02:47:21.630Z,100.00
2023-04-12T02:49:52.739Z,100.00
2023-04-12T02:52:23.539Z,100.00
2023-04-12T02:55:42.310Z,100.00
2023-04-12T02:58:13.227Z,100.00
2023-04-12T03:00:50.077Z,100.00
2023-04-12T03:03:22.627Z,100.00
2023-04-12T03:05:56.454Z,100.00
2023-04-12T03:08:25.584Z,100.00
2023-04-12T03:10:57.315Z,100.00
2023-04-12T03:13:27.497Z,100.00
2023-04-12T03:15:58.191Z,100.00
2023-04-12T03:18:33.408Z,100.00
2023-04-12T03:21:04.061Z,100.00
2023-04-12T03:23:32.714Z,100.00
2023-04-12T03:26:10.746Z,100.00
2023-04-12T03:28:39.200Z,100.00
2023-04-12T03:31:08.769Z,100.00
2023-04-12T03:33:43.155Z,100.00
2023-04-12T03:36:22.473Z,100.00
2023-04-12T03:38:57.189Z,100.00
2023-04-12T03:41:26.695Z,100.00
2023-04-12T03:43:55.547Z,100.00
2023-04-12T03:46:24.044Z,100.00
2023-04-12T03:48:58.044Z,100.00
2023-04-12T03:51:30.703Z,100.00
2023-04-12T03:54:04.639Z,100.00
2023-04-12T03:56:47.861Z,100.00
2023-04-12T03:59:49.320Z,100.00
2023-04-12T04:02:22.925Z,100.00
2023-04-12T04:04:54.349Z,100.00
2023-04-12T04:07:29.476Z,100.00
2023-04-12T04:09:58.260Z,100.00
2023-04-12T04:12:30.911Z,100.00
2023-04-12T04:14:59.447Z,100.00
2023-04-12T04:17:32.699Z,100.00
2023-04-12T04:20:01.390Z,100.00
2023-04-12T04:22:34.721Z,100.00
2023-04-12T04:25:06.900Z,100.00
2023-04-12T04:27:38.559Z,100.00
2023-04-12T04:30:10.650Z,100.00
2023-04-12T04:32:44.346Z,100.00
2023-04-12T04:35:16.926Z,100.00
2023-04-12T04:38:03.670Z,100.00
2023-04-12T04:40:58.839Z,100.00
2023-04-12T04:43:42.742Z,100.00
2023-04-12T04:46:11.856Z,100.00
2023-04-12T04:48:41.191Z,100.00
2023-04-12T04:51:09.579Z,100.00
2023-04-12T04:53:39.168Z,100.00
2023-04-12T04:56:09.199Z,100.00
2023-04-12T04:58:37.813Z,100.00
2023-04-12T05:01:08.600Z,100.00
2023-04-12T05:03:37.949Z,100.00
2023-04-12T05:06:06.924Z,100.00
2023-04-12T05:08:36.286Z,100.00
2023-04-12T05:11:06.944Z,100.00
2023-04-12T05:13:36.118Z,100.00
2023-04-12T05:16:08.154Z,100.00
2023-04-12T05:18:36.698Z,100.00
2023-04-12T05:21:05.878Z,100.00
2023-04-12T05:23:38.025Z,99.74
2023-04-12T05:26:08.695Z,99.83
2023-04-12T05:28:37.594Z,99.76
2023-04-12T05:31:14.353Z,99.74
2023-04-12T05:33:42.509Z,100.00
2023-04-12T05:36:11.333Z,100.00
2023-04-12T05:38:39.812Z,100.00
2023-04-12T05:41:14.357Z,99.60
2023-04-12T05:43:42.895Z,99.28
2023-04-12T05:46:11.942Z,99.05
2023-04-12T05:48:40.747Z,98.45
2023-04-12T05:51:09.026Z,98.23
2023-04-12T05:53:37.885Z,97.94
2023-04-12T05:56:08.681Z,97.83
2023-04-12T05:58:38.125Z,96.80
2023-04-12T06:01:07.575Z,95.10
2023-04-12T06:03:36.235Z,94.44
2023-04-12T06:06:09.995Z,93.31
2023-04-12T06:08:39.502Z,90.54
2023-04-12T06:11:11.504Z,90.56
2023-04-12T06:13:41.545Z,89.91
2023-04-12T06:16:10.301Z,89.76
2023-04-12T06:18:38.981Z,87.84
2023-04-12T06:21:07.326Z,85.93
2023-04-12T06:23:36.479Z,84.11
2023-04-12T06:26:05.607Z,82.49
2023-04-12T06:28:34.829Z,81.94
2023-04-12T06:31:04.597Z,79.78
2023-04-12T06:33:37.811Z,81.12
2023-04-12T06:36:11.512Z,81.09
2023-04-12T06:38:40.331Z,80.42
2023-04-12T06:41:08.750Z,80.38
2023-04-12T06:43:37.692Z,80.52
2023-04-12T06:46:09.226Z,77.62
2023-04-12T06:48:37.436Z,78.96
2023-04-12T06:51:06.458Z,77.48
2023-04-12T06:53:35.203Z,77.82
2023-04-12T06:56:05.252Z,76.86
2023-04-12T06:58:33.713Z,75.63
2023-04-12T07:01:07.945Z,70.15
2023-04-12T07:03:37.009Z,62.13
2023-04-12T07:06:17.810Z,47.06
2023-04-12T07:08:53.199Z,36.66
2023-04-12T07:11:23.122Z,31.01
2023-04-12T07:13:52.103Z,30.89
2023-04-12T07:16:21.495Z,29.24
2023-04-12T07:18:49.864Z,34.86
2023-04-12T07:21:18.880Z,35.88
2023-04-12T07:23:51.251Z,34.42
2023-04-12T07:26:20.195Z,32.10
2023-04-12T07:28:48.294Z,34.05
2023-04-12T07:31:16.440Z,32.17
2023-04-12T07:33:46.364Z,31.16
2023-04-12T07:36:16.733Z,29.50
2023-04-12T07:38:45.280Z,30.33
2023-04-12T07:41:13.514Z,29.02
2023-04-12T07:43:41.758Z,31.63
2023-04-12T07:46:10.629Z,31.31
2023-04-12T07:48:39.121Z,32.67
2023-04-12T07:51:09.433Z,30.84
2023-04-12T07:53:37.495Z,34.10
2023-04-12T07:56:07.167Z,37.63
2023-04-12T07:58:35.679Z,36.85
2023-04-12T08:01:04.332Z,34.74
2023-04-12T08:03:32.750Z,36.08
2023-04-12T08:06:01.691Z,39.29
2023-04-12T08:08:31.617Z,35.61
2023-04-12T08:10:59.779Z,36.34
2023-04-12T08:13:27.795Z,33.79
2023-04-12T08:15:56.249Z,35.41
2023-04-12T08:18:24.589Z,35.08
2023-04-12T08:20:52.747Z,36.18
2023-04-12T08:23:21.492Z,38.21
2023-04-12T08:25:51.476Z,35.77
2023-04-12T08:28:19.699Z,36.29
2023-04-12T08:30:47.848Z,36.65
2023-04-12T08:33:17.357Z,36.88
2023-04-12T08:35:46.309Z,37.21
2023-04-12T08:38:14.687Z,37.08
2023-04-12T08:40:46.601Z,37.20
2023-04-12T08:43:18.999Z,38.14
2023-04-12T08:45:47.808Z,39.85
2023-04-12T08:48:18.169Z,36.72
2023-04-12T08:50:50.610Z,38.66
2023-04-12T08:53:19.311Z,39.19
2023-04-12T08:55:47.485Z,39.89
2023-04-12T08:58:17.378Z,39.04
2023-04-12T09:00:46.297Z,36.36
2023-04-12T09:03:14.675Z,36.47
2023-04-12T09:05:43.315Z,39.13
2023-04-12T09:08:12.163Z,36.71
2023-04-12T09:10:42.158Z,37.92
2023-04-12T09:13:10.981Z,40.05
2023-04-12T09:15:50.067Z,38.01
2023-04-12T09:18:18.277Z,41.36
2023-04-12T09:20:46.509Z,40.09
2023-04-12T09:23:19.562Z,39.70
2023-04-12T09:25:50.362Z,39.88
2023-04-12T09:28:21.513Z,39.49
2023-04-12T09:30:52.744Z,40.32
2023-04-12T09:33:22.377Z,38.41
2023-04-12T09:35:51.327Z,36.61
2023-04-12T09:38:19.616Z,39.63
2023-04-12T09:40:48.752Z,38.01
2023-04-12T09:43:17.331Z,37.40
2023-04-12T09:45:45.546Z,38.09
2023-04-12T09:48:22.107Z,38.21
2023-04-12T09:50:59.480Z,41.41
2023-04-12T09:53:28.248Z,42.32
2023-04-12T09:55:58.315Z,44.66
2023-04-12T09:58:30.612Z,41.34
2023-04-12T10:01:02.233Z,42.97
2023-04-12T10:03:32.249Z,38.79
2023-04-12T10:06:00.822Z,42.10
2023-04-12T10:08:29.260Z,41.24
2023-04-12T10:10:58.187Z,40.40
2023-04-12T10:13:27.705Z,41.26
2023-04-12T10:15:56.826Z,43.59
2023-04-12T10:18:27.480Z,42.61
2023-04-12T10:20:57.261Z,42.51
2023-04-12T10:23:25.601Z,44.17
2023-04-12T10:25:55.796Z,39.18
2023-04-12T10:28:24.539Z,40.01
2023-04-12T10:30:54.950Z,41.16
2023-04-12T10:33:27.608Z,41.14
2023-04-12T10:36:03.965Z,44.95
2023-04-12T10:38:46.807Z,41.58
2023-04-12T10:41:19.247Z,41.24
2023-04-12T10:43:48.200Z,41.90
2023-04-12T10:46:51.159Z,40.64
2023-04-12T10:49:20.379Z,44.92
2023-04-12T10:52:23.542Z,43.86
2023-04-12T10:54:51.902Z,42.45
2023-04-12T10:57:49.620Z,43.54
2023-04-12T11:00:20.611Z,40.93
2023-04-12T11:03:11.928Z,43.37
2023-04-12T11:06:09.186Z,42.75
2023-04-12T11:09:20.677Z,39.52
2023-04-12T11:11:49.561Z,39.77
2023-04-12T11:14:18.283Z,39.44
2023-04-12T11:17:22.652Z,42.43
2023-04-12T11:19:57.603Z,38.55
2023-04-12T11:22:29.232Z,38.03
2023-04-12T11:25:00.503Z,37.35
2023-04-12T11:27:31.970Z,39.00
2023-04-12T11:30:02.083Z,44.70
2023-04-12T11:32:32.358Z,37.90
2023-04-12T11:35:00.523Z,39.82
2023-04-12T11:37:33.854Z,40.80
2023-04-12T11:40:06.646Z,38.32
2023-04-12T11:42:35.238Z,36.68
2023-04-12T11:45:10.281Z,38.45
2023-04-12T11:47:44.870Z,41.48
2023-04-12T11:50:13.400Z,38.57
2023-04-12T11:52:42.373Z,41.98
2023-04-12T11:55:12.689Z,40.92
2023-04-12T11:57:40.821Z,42.70
2023-04-12T12:00:10.921Z,42.97
2023-04-12T12:02:52.306Z,43.59
2023-04-12T12:05:30.734Z,42.30
2023-04-12T12:08:01.255Z,42.93
2023-04-12T12:10:43.758Z,43.69
2023-04-12T12:13:15.470Z,43.06
2023-04-12T12:15:46.428Z,45.80
2023-04-12T12:18:14.619Z,41.34
2023-04-12T12:20:43.861Z,43.33
2023-04-12T12:23:12.329Z,42.24
2023-04-12T12:25:47.164Z,42.84
2023-04-12T12:28:16.061Z,45.04
2023-04-12T12:30:44.379Z,45.10
2023-04-12T12:33:14.106Z,45.12
2023-04-12T12:35:42.241Z,44.92
2023-04-12T12:38:11.702Z,45.22
2023-04-12T12:40:41.637Z,45.32
2023-04-12T12:43:19.825Z,46.75
2023-04-12T12:45:48.114Z,47.63
2023-04-12T12:48:16.610Z,45.60
2023-04-12T12:50:45.175Z,45.05
2023-04-12T12:53:13.385Z,46.96
2023-04-12T12:55:43.422Z,45.08
2023-04-12T12:58:11.592Z,44.42
2023-04-12T13:00:41.379Z,43.69
2023-04-12T13:03:10.140Z,44.12
2023-04-12T13:05:38.762Z,45.25
2023-04-12T13:08:06.902Z,46.22
2023-04-12T13:10:35.155Z,45.21
2023-04-12T13:13:05.164Z,45.32
2023-04-12T13:15:33.728Z,48.18
2023-04-12T13:18:02.163Z,49.45
2023-04-12T13:20:33.175Z,48.76
2023-04-12T13:23:01.831Z,47.95
2023-04-12T13:25:30.128Z,47.41
2023-04-12T13:27:58.423Z,44.47
2023-04-12T13:30:28.305Z,44.17
2023-04-12T13:32:56.647Z,46.10
2023-04-12T13:35:24.631Z,47.39
2023-04-12T13:37:53.142Z,48.37
2023-04-12T13:40:21.853Z,46.51
2023-04-12T13:42:50.060Z,47.68
2023-04-12T13:45:18.247Z,49.00
2023-04-12T13:47:47.946Z,48.63
2023-04-12T13:50:16.118Z,48.91
2023-04-12T13:52:44.353Z,50.22
2023-04-12T13:55:12.509Z,50.43
2023-04-12T13:57:40.715Z,48.07
2023-04-12T14:00:10.317Z,47.44
2023-04-12T14:02:38.597Z,48.42
2023-04-12T14:05:09.679Z,47.76
2023-04-12T14:07:37.679Z,48.79
2023-04-12T14:10:06.628Z,49.27
2023-04-12T14:12:34.725Z,47.75
2023-04-12T14:15:02.972Z,48.95
2023-04-12T14:17:33.027Z,45.18
2023-04-12T14:20:01.467Z,48.01
2023-04-12T14:22:31.571Z,47.96
2023-04-12T14:24:59.784Z,48.35
2023-04-12T14:27:28.236Z,49.56
2023-04-12T14:29:56.766Z,49.88
2023-04-12T14:32:25.315Z,47.42
2023-04-12T14:34:53.566Z,47.59
2023-04-12T14:37:22.007Z,49.70
2023-04-12T14:39:52.477Z,47.14
2023-04-12T14:42:20.964Z,46.68
2023-04-12T14:44:49.010Z,43.15
2023-04-12T14:47:17.374Z,43.37
2023-04-12T14:49:45.572Z,42.03
2023-04-12T14:52:13.807Z,43.57
2023-04-12T14:54:41.948Z,42.69
2023-04-12T14:57:12.545Z,43.06
2023-04-12T14:59:41.008Z,42.37
2023-04-12T15:02:09.304Z,42.66
2023-04-12T15:04:37.840Z,42.40
2023-04-12T15:07:06.167Z,43.74
2023-04-12T15:09:34.396Z,44.43
2023-04-12T15:12:02.441Z,45.24
2023-04-12T15:14:32.121Z,45.38
2023-04-12T15:17:00.308Z,43.71
2023-04-12T15:19:28.667Z,43.98
2023-04-12T15:21:57.090Z,44.03
2023-04-12T15:24:26.173Z,43.63
2023-04-12T15:26:54.653Z,43.96
2023-04-12T15:29:24.694Z,44.89
2023-04-12T15:31:56.152Z,45.81
2023-04-12T15:34:25.317Z,44.55
2023-04-12T15:36:53.564Z,44.64
2023-04-12T15:39:22.266Z,44.80
2023-04-12T15:41:50.560Z,43.61
2023-04-12T15:44:18.628Z,43.41
2023-04-12T15:46:56.222Z,43.61
2023-04-12T15:49:37.917Z,42.67
2023-04-12T15:52:06.454Z,42.34
2023-04-12T15:54:35.100Z,41.77
2023-04-12T15:57:09.577Z,41.94
2023-04-12T15:59:38.097Z,43.37
2023-04-12T16:02:09.785Z,41.79
2023-04-12T16:04:40.693Z,44.25
2023-04-12T16:07:09.254Z,45.63
2023-04-12T16:09:39.717Z,43.50
2023-04-12T16:12:08.152Z,45.42
2023-04-12T16:14:37.140Z,46.06
2023-04-12T16:17:05.614Z,46.65
2023-04-12T16:19:33.710Z,47.06
2023-04-12T16:22:03.916Z,46.26
2023-04-12T16:24:32.092Z,46.22
2023-04-12T16:27:00.688Z,47.30
2023-04-12T16:29:29.124Z,47.30
2023-04-12T16:31:57.922Z,47.18
2023-04-12T16:34:26.545Z,46.58
2023-04-12T16:36:54.798Z,46.82
2023-04-12T16:39:24.506Z,46.53
2023-04-12T16:41:52.625Z,48.10
2023-04-12T16:44:21.164Z,46.99
2023-04-12T16:46:49.219Z,46.88
2023-04-12T16:49:19.645Z,48.95
2023-04-12T16:51:48.124Z,49.00
2023-04-12T16:54:16.591Z,49.91
2023-04-12T16:56:47.439Z,51.11
2023-04-12T16:59:15.698Z,52.10
2023-04-12T17:01:44.350Z,52.57
2023-04-12T17:04:13.265Z,53.50
2023-04-12T17:06:44.512Z,54.77
2023-04-12T17:09:13.386Z,53.94
2023-04-12T17:11:42.121Z,55.10
2023-04-12T17:14:13.997Z,55.20
2023-04-12T17:17:12.225Z,55.99
2023-04-12T17:19:45.399Z,55.40
2023-04-12T17:22:14.414Z,56.19
2023-04-12T17:24:43.837Z,55.81
2023-04-12T17:27:12.470Z,55.97
2023-04-12T17:29:43.078Z,56.38
2023-04-12T17:32:13.056Z,56.51
2023-04-12T17:34:42.520Z,56.76
2023-04-12T17:37:10.863Z,57.82
2023-04-12T17:39:39.026Z,58.63
2023-04-12T17:42:07.242Z,58.05
2023-04-12T17:44:35.696Z,58.29
2023-04-12T17:47:05.525Z,58.53
2023-04-12T17:49:35.857Z,58.46
2023-04-12T17:52:04.543Z,60.18
2023-04-12T17:54:33.602Z,59.54
2023-04-12T17:57:02.387Z,60.06
2023-04-12T17:59:30.685Z,60.70
2023-04-12T18:01:59.014Z,60.42
2023-04-12T18:04:29.204Z,60.87
2023-04-12T18:06:58.227Z,60.72
2023-04-12T18:09:27.393Z,62.23
2023-04-12T18:11:56.692Z,61.56
2023-04-12T18:14:25.026Z,62.89
2023-04-12T18:16:54.069Z,64.42
2023-04-12T18:19:23.232Z,64.53
2023-04-12T18:21:53.329Z,64.38
2023-04-12T18:24:21.713Z,63.73
2023-04-12T18:26:51.196Z,63.97
2023-04-12T18:29:19.622Z,64.76
2023-04-12T18:31:47.875Z,64.35
2023-04-12T18:34:18.971Z,64.00
2023-04-12T18:36:47.674Z,64.17
2023-04-12T18:39:17.878Z,64.75
2023-04-12T18:41:46.315Z,64.85
2023-04-12T18:44:15.729Z,66.80
2023-04-12T18:46:43.975Z,66.90
2023-04-12T18:49:12.073Z,67.92
2023-04-12T18:51:40.202Z,69.61
2023-04-12T18:54:12.931Z,70.00
2023-04-12T18:56:43.295Z,72.20
2023-04-12T18:59:17.655Z,71.23
2023-04-12T19:01:46.470Z,71.00
2023-04-12T19:04:16.568Z,71.44
2023-04-12T19:06:45.335Z,71.28
2023-04-12T19:09:13.727Z,70.75
2023-04-12T19:11:43.623Z,70.66
2023-04-12T19:14:12.014Z,71.79
2023-04-12T19:16:40.530Z,72.73
2023-04-12T19:19:09.109Z,73.00
2023-04-12T19:21:37.926Z,74.51
2023-04-12T19:24:06.937Z,73.93
2023-04-12T19:26:36.926Z,74.61
2023-04-12T19:29:07.156Z,75.83
2023-04-12T19:31:36.083Z,72.50
2023-04-12T19:34:05.647Z,73.33
2023-04-12T19:36:34.559Z,72.35
2023-04-12T19:39:02.743Z,72.00
2023-04-12T19:41:31.570Z,72.31
2023-04-12T19:43:59.858Z,72.51
2023-04-12T19:46:29.865Z,73.18
2023-04-12T19:48:59.043Z,72.12
2023-04-12T19:51:27.589Z,72.40
2023-04-12T19:53:55.697Z,70.93
2023-04-12T19:56:24.495Z,71.48
2023-04-12T19:58:54.655Z,70.91
2023-04-12T20:01:22.784Z,70.80
2023-04-12T20:03:53.456Z,70.83
2023-04-12T20:06:22.153Z,70.81
2023-04-12T20:08:50.317Z,70.70
2023-04-12T20:11:18.874Z,70.87
2023-04-12T20:13:47.076Z,69.91
2023-04-12T20:16:16.443Z,69.73
2023-04-12T20:18:44.813Z,69.30
2023-04-12T20:21:14.169Z,69.41
2023-04-12T20:23:43.442Z,70.16
2023-04-12T20:26:11.528Z,69.79
2023-04-12T20:28:40.042Z,69.45
2023-04-12T20:31:36.961Z,69.63
2023-04-12T20:34:30.418Z,69.89
2023-04-12T20:37:00.238Z,69.29
2023-04-12T20:39:29.579Z,69.08
2023-04-12T20:42:01.244Z,70.26
2023-04-12T20:44:29.624Z,68.83
2023-04-12T20:46:58.717Z,68.77
2023-04-12T20:49:28.056Z,69.75
2023-04-12T20:51:57.225Z,69.65
2023-04-12T20:54:30.012Z,68.51
2023-04-12T20:57:00.124Z,69.31
2023-04-12T20:59:30.531Z,69.27
2023-04-12T21:01:59.448Z,68.26
2023-04-12T21:04:28.918Z,69.13
2023-04-12T21:06:57.668Z,69.94
2023-04-12T21:09:27.929Z,70.87
2023-04-12T21:11:58.049Z,70.43
2023-04-12T21:14:28.600Z,70.85
2023-04-12T21:17:01.675Z,70.92
2023-04-12T21:19:33.498Z,70.63
2023-04-12T21:22:05.493Z,69.29
2023-04-12T21:24:39.177Z,69.78
2023-04-12T21:27:08.947Z,69.54
2023-04-12T21:29:41.706Z,70.38
2023-04-12T21:32:10.936Z,71.09
2023-04-12T21:34:41.305Z,72.45
2023-04-12T21:37:13.488Z,72.38
2023-04-12T21:39:47.021Z,69.51
2023-04-12T21:42:19.174Z,67.61
2023-04-12T21:44:51.334Z,67.59
2023-04-12T21:47:22.700Z,68.24
2023-04-12T21:49:56.414Z,69.43
2023-04-12T21:52:31.717Z,69.22
2023-04-12T21:55:04.149Z,68.81
2023-04-12T21:57:36.211Z,68.46
2023-04-12T22:00:08.808Z,67.81
2023-04-12T22:03:14.705Z,68.25
2023-04-12T22:05:51.155Z,67.75
2023-04-12T22:08:26.292Z,66.48
2023-04-12T22:10:55.965Z,66.55
2023-04-12T22:13:25.017Z,66.08
2023-04-12T22:15:53.718Z,65.97
2023-04-12T22:18:22.122Z,65.98
2023-04-12T22:20:51.034Z,66.85
2023-04-12T22:23:19.514Z,65.36
2023-04-12T22:25:49.636Z,65.77
2023-04-12T22:28:19.200Z,65.87
2023-04-12T22:30:48.663Z,66.22
2023-04-12T22:33:17.523Z,65.75
2023-04-12T22:35:46.455Z,65.72
2023-04-12T22:38:15.802Z,65.68
2023-04-12T22:40:43.898Z,65.98
2023-04-12T22:43:18.322Z,66.32
2023-04-12T22:45:48.364Z,66.81
2023-04-12T22:48:16.656Z,66.40
2023-04-12T22:50:45.852Z,66.08
2023-04-12T22:53:14.178Z,65.99
2023-04-12T22:55:43.257Z,66.10
2023-04-12T22:58:11.458Z,65.70
2023-04-12T23:00:40.504Z,65.81
2023-04-12T23:03:11.341Z,65.96
2023-04-12T23:05:44.923Z,65.79
2023-04-12T23:08:14.832Z,66.29
2023-04-12T23:10:43.289Z,66.36
2023-04-12T23:13:12.182Z,66.14
2023-04-12T23:15:41.560Z,66.58
2023-04-12T23:18:12.362Z,66.52
2023-04-12T23:20:40.677Z,66.33
2023-04-12T23:23:10.169Z,66.44
2023-04-12T23:25:42.025Z,66.24
2023-04-12T23:28:13.518Z,67.05
2023-04-12T23:30:44.557Z,66.97
2023-04-12T23:33:14.620Z,66.38
2023-04-12T23:35:43.852Z,68.17
2023-04-12T23:38:15.857Z,68.20
2023-04-12T23:40:44.357Z,68.72
2023-04-12T23:43:12.740Z,69.38
2023-04-12T23:45:41.543Z,68.92
2023-04-12T23:48:09.751Z,69.78
2023-04-12T23:50:40.541Z,69.44
2023-04-12T23:53:08.880Z,69.00
2023-04-12T23:55:37.118Z,69.48
2023-04-12T23:58:05.546Z,68.67
